createdAt,value
2022-07-29T00:04:56.000Z,3.60
2022-07-29T00:14:56.000Z,4.20
2022-07-29T00:24:56.000Z,3.90
2022-07-29T00:44:57.000Z,4.70
2022-07-29T00:54:57.000Z,4.20
2022-07-29T01:04:57.000Z,3.80
2022-07-29T01:14:57.000Z,3.50
2022-07-29T01:24:57.000Z,4.50
2022-07-29T01:34:58.000Z,4.30
2022-07-29T01:44:58.000Z,4.20
2022-07-29T01:54:58.000Z,4.00
2022-07-29T02:14:58.000Z,4.30
2022-07-29T02:14:58.000Z,4.30
2022-07-29T02:24:59.000Z,4.00
2022-07-29T02:34:59.000Z,4.80
2022-07-29T02:44:59.000Z,4.40
2022-07-29T02:54:59.000Z,4.40
2022-07-29T03:04:59.000Z,3.80
2022-07-29T03:40:35.000Z,3.90
2022-07-29T03:40:35.000Z,4.50
2022-07-29T03:50:35.000Z,4.20
2022-07-29T04:00:35.000Z,4.20
2022-07-29T04:10:35.000Z,4.20
2022-07-29T04:20:35.000Z,4.00
2022-07-29T04:30:35.000Z,4.00
2022-07-29T04:40:35.000Z,4.20
2022-07-29T04:50:36.000Z,4.70
2022-07-29T05:10:36.000Z,4.20
2022-07-29T05:20:36.000Z,4.50
2022-07-29T05:30:36.000Z,4.80
2022-07-29T05:40:36.000Z,4.90
2022-07-29T05:50:36.000Z,4.60
2022-07-29T06:00:36.000Z,4.00
2022-07-29T06:10:35.000Z,3.90
2022-07-29T06:20:35.000Z,4.70
2022-07-29T06:40:35.000Z,4.50
2022-07-29T06:50:35.000Z,5.00
2022-07-29T07:00:35.000Z,4.90
2022-07-29T07:10:35.000Z,5.80
2022-07-29T07:20:34.000Z,5.70
2022-07-29T07:30:34.000Z,5.80
2022-07-29T07:40:34.000Z,5.50
2022-07-29T07:50:33.000Z,5.30
2022-07-29T08:10:33.000Z,5.70
2022-07-29T08:20:32.000Z,5.70
2022-07-29T08:30:32.000Z,5.30
2022-07-29T08:40:31.000Z,4.20
2022-07-29T08:50:31.000Z,4.90
2022-07-29T09:00:30.000Z,5.30
2022-07-29T09:10:29.000Z,5.60
2022-07-29T09:20:29.000Z,6.60
2022-07-29T09:40:28.000Z,5.40
2022-07-29T09:50:27.000Z,5.30
2022-07-29T10:00:26.000Z,6.40
2022-07-29T10:10:25.000Z,4.90
2022-07-29T10:20:25.000Z,4.30
2022-07-29T10:30:24.000Z,5.10
2022-07-29T10:40:23.000Z,5.50
2022-07-29T10:50:22.000Z,4.90
2022-07-29T11:10:21.000Z,4.20
2022-07-29T11:20:20.000Z,4.10
2022-07-29T11:30:19.000Z,4.10
2022-07-29T11:40:18.000Z,4.60
2022-07-29T11:50:17.000Z,4.80
2022-07-29T12:00:16.000Z,3.40
2022-07-29T12:00:16.000Z,3.40
2022-07-29T12:25:31.000Z,4.30
2022-07-29T12:25:31.000Z,4.40
2022-07-29T12:35:31.000Z,4.40
2022-07-29T12:45:31.000Z,4.70
2022-07-29T12:55:31.000Z,4.60
2022-07-29T13:05:31.000Z,4.30
2022-07-29T13:15:31.000Z,4.30
2022-07-29T13:25:31.000Z,3.90
2022-07-29T13:35:30.000Z,4.00
2022-07-29T13:55:30.000Z,3.40
2022-07-29T14:05:30.000Z,3.80
2022-07-29T14:15:30.000Z,4.40
2022-07-29T14:25:30.000Z,5.00
2022-07-29T14:55:47.000Z,4.50
2022-07-29T15:11:04.000Z,4.30
2022-07-29T15:11:04.000Z,4.30
2022-07-29T15:21:04.000Z,4.90
2022-07-29T15:31:04.000Z,5.00
2022-07-29T15:41:04.000Z,4.60
2022-07-29T15:51:04.000Z,5.70
2022-07-29T16:01:04.000Z,3.90
2022-07-29T16:11:04.000Z,4.80
2022-07-29T16:21:04.000Z,5.70
2022-07-29T16:41:04.000Z,5.20
2022-07-29T16:51:05.000Z,5.30
2022-07-29T17:01:05.000Z,5.00
2022-07-29T17:11:05.000Z,4.20
2022-07-29T17:21:06.000Z,4.50
2022-07-29T17:31:06.000Z,4.00
2022-07-29T17:41:06.000Z,4.60
2022-07-29T17:51:07.000Z,3.90
2022-07-29T18:11:08.000Z,5.10
2022-07-29T18:11:08.000Z,5.10
2022-07-29T18:21:08.000Z,5.30
2022-07-29T18:31:08.000Z,6.00
2022-07-29T18:41:09.000Z,5.50
2022-07-29T18:51:09.000Z,5.30
2022-07-29T19:01:10.000Z,6.10
2022-07-29T19:11:10.000Z,5.80
2022-07-29T20:02:04.000Z,7.30
2022-07-29T20:02:04.000Z,5.90
2022-07-29T20:12:03.000Z,6.00
2022-07-29T20:12:03.000Z,6.00
2022-07-29T20:22:03.000Z,7.10
2022-07-29T20:32:03.000Z,6.20
2022-07-29T20:42:03.000Z,6.00
2022-07-29T20:52:03.000Z,6.50
2022-07-29T21:02:03.000Z,6.70
2022-07-29T21:12:03.000Z,7.70
2022-07-29T21:12:03.000Z,7.70
2022-07-29T21:32:02.000Z,9.80
2022-07-29T21:42:02.000Z,8.60
2022-07-29T21:52:02.000Z,9.40
2022-07-29T22:02:03.000Z,11.10
2022-07-29T22:12:03.000Z,11.70
2022-07-29T22:22:03.000Z,12.20
2022-07-29T22:32:03.000Z,14.30
2022-07-29T22:42:03.000Z,14.60
2022-07-29T23:02:04.000Z,12.70
2022-07-29T23:12:04.000Z,12.70
2022-07-29T23:22:04.000Z,14.20
2022-07-29T23:32:05.000Z,14.50
2022-07-29T23:42:05.000Z,13.50
2022-07-29T23:52:05.000Z,15.00
